Time;durP1;ratioP1;P1;durP2;ratioP2;P2;SDS_P1;SDS_P2;PMS_P1;PMS_P2;Temp;Humidity;BMP_temperature;BMP_pressure;BME280_temperature;BME280_humidity;BME280_pressure;Samples;Min_cycle;Max_cycle;Signal;HPM_P1;HPM_P2
2022/03/13 00:00:11;;;;;;;24.23;19.42;;;8.10;99.90;;;;;;4885588;29;20056;-45
2022/03/13 00:02:38;;;;;;;21.60;18.65;;;8.10;99.90;;;;;;4885924;29;20088;-42
2022/03/13 00:05:15;;;;;;;20.88;18.58;;;8.20;99.90;;;;;;4889553;29;20064;-45
2022/03/13 00:07:42;;;;;;;21.08;18.20;;;8.10;99.90;;;;;;4885681;29;20052;-46
2022/03/13 00:10:08;;;;;;;22.80;19.67;;;8.10;99.90;;;;;;4885126;29;20091;-46
2022/03/13 00:12:35;;;;;;;25.90;19.67;;;8.10;99.90;;;;;;4884348;29;20052;-45
2022/03/13 00:15:03;;;;;;;21.63;18.63;;;8.10;99.90;;;;;;4885409;29;20056;-42
2022/03/13 00:17:31;;;;;;;25.67;19.63;;;8.10;99.90;;;;;;4885140;29;20060;-41
2022/03/13 00:20:01;;;;;;;22.10;19.42;;;8.10;99.90;;;;;;4885085;29;20053;-43
2022/03/13 00:22:28;;;;;;;20.20;18.10;;;8.10;99.90;;;;;;4884527;29;20062;-43
2022/03/13 00:24:54;;;;;;;20.63;18.35;;;8.10;99.90;;;;;;4866926;29;20139;-45
2022/03/13 00:27:20;;;;;;;20.60;18.02;;;8.00;99.90;;;;;;4884723;29;20500;-43
2022/03/13 00:29:46;;;;;;;22.85;18.95;;;8.00;99.90;;;;;;4884766;29;20060;-42
2022/03/13 00:32:12;;;;;;;23.30;17.83;;;8.00;99.90;;;;;;4866704;29;20111;-45
2022/03/13 00:34:38;;;;;;;23.60;19.88;;;7.90;99.90;;;;;;4884462;29;20048;-43
2022/03/13 00:37:04;;;;;;;23.98;21.45;;;7.90;99.90;;;;;;4896470;29;20128;-43
2022/03/13 00:39:30;;;;;;;20.58;17.92;;;7.90;99.90;;;;;;4887597;29;20096;-41
2022/03/13 00:41:56;;;;;;;21.92;19.17;;;7.80;99.90;;;;;;4887765;29;20056;-43
2022/03/13 00:44:22;;;;;;;22.67;19.23;;;7.80;99.90;;;;;;4888360;29;20527;-44
2022/03/13 00:46:48;;;;;;;22.17;18.70;;;7.80;99.90;;;;;;4887712;29;20052;-43
2022/03/13 00:49:14;;;;;;;22.73;18.77;;;7.80;99.90;;;;;;4888062;29;20057;-44
2022/03/13 00:51:40;;;;;;;23.88;19.58;;;7.80;99.90;;;;;;4883870;29;20127;-42
2022/03/13 00:54:06;;;;;;;21.95;19.27;;;7.70;99.90;;;;;;4888562;29;20538;-44
2022/03/13 00:56:32;;;;;;;22.08;19.80;;;7.70;99.90;;;;;;4888027;29;20044;-44
2022/03/13 00:58:58;;;;;;;23.98;20.13;;;7.70;99.90;;;;;;4888828;29;20418;-45
2022/03/13 01:01:24;;;;;;;23.75;19.83;;;7.70;99.90;;;;;;4888065;29;20171;-44
2022/03/13 01:03:53;;;;;;;21.83;19.20;;;7.70;99.90;;;;;;4888552;29;20143;-43
2022/03/13 01:06:22;;;;;;;22.00;19.67;;;7.80;99.90;;;;;;4888617;29;20403;-45
2022/03/13 01:08:49;;;;;;;24.40;20.20;;;7.80;99.90;;;;;;4888121;29;20045;-44
2022/03/13 01:11:18;;;;;;;25.60;20.38;;;7.80;99.90;;;;;;4886607;29;20048;-43
2022/03/13 01:13:45;;;;;;;24.90;19.83;;;7.90;99.90;;;;;;4886033;29;20567;-43
2022/03/13 01:16:21;;;;;;;25.10;20.23;;;7.80;99.90;;;;;;4888753;29;20116;-43
2022/03/13 01:18:49;;;;;;;22.23;19.63;;;7.90;99.90;;;;;;4886695;29;20058;-44
2022/03/13 01:21:18;;;;;;;26.20;20.58;;;7.90;99.90;;;;;;4891222;29;20116;-46
2022/03/13 01:24:04;;;;;;;22.95;19.90;;;7.90;99.90;;;;;;4888565;29;20139;-45
2022/03/13 01:26:34;;;;;;;24.60;20.88;;;7.90;99.90;;;;;;4885762;29;20123;-41
2022/03/13 01:29:01;;;;;;;22.58;18.88;;;7.90;99.90;;;;;;4887744;29;20052;-43
2022/03/13 01:31:29;;;;;;;26.00;19.98;;;7.90;99.90;;;;;;4887253;29;20544;-43
2022/03/13 01:33:59;;;;;;;23.25;19.23;;;7.90;99.90;;;;;;4870938;29;20056;-44
2022/03/13 01:36:26;;;;;;;23.38;19.80;;;7.80;99.90;;;;;;4891921;29;20515;-43
2022/03/13 01:38:53;;;;;;;21.85;19.38;;;7.80;99.90;;;;;;4886488;29;20075;-43
2022/03/13 01:41:20;;;;;;;23.75;19.85;;;7.80;99.90;;;;;;4886211;29;20595;-43
2022/03/13 01:43:48;;;;;;;23.70;19.27;;;7.80;99.90;;;;;;4886651;29;20052;-43
2022/03/13 01:46:13;;;;;;;26.23;20.38;;;7.80;99.90;;;;;;4886529;29;20097;-45
2022/03/13 01:48:58;;;;;;;23.85;19.98;;;7.80;99.90;;;;;;4887136;29;20064;-44
2022/03/13 01:51:26;;;;;;;22.42;19.08;;;7.80;99.90;;;;;;4884880;29;20497;-43
2022/03/13 01:53:54;;;;;;;22.83;18.63;;;7.80;99.90;;;;;;4886631;29;20052;-44
2022/03/13 01:56:21;;;;;;;27.80;20.40;;;7.80;99.90;;;;;;4887202;29;20056;-43
2022/03/13 01:58:53;;;;;;;22.17;19.77;;;7.80;99.90;;;;;;4871741;29;20061;-43
2022/03/13 02:01:20;;;;;;;25.50;21.20;;;7.80;99.90;;;;;;4885611;29;20475;-43
2022/03/13 02:03:47;;;;;;;26.40;19.40;;;7.80;99.90;;;;;;4886676;29;20297;-44
2022/03/13 02:06:13;;;;;;;21.88;18.85;;;7.80;99.90;;;;;;4886799;29;20050;-44
2022/03/13 02:08:40;;;;;;;22.30;19.58;;;7.80;99.90;;;;;;4869941;29;20119;-43
2022/03/13 02:11:07;;;;;;;22.58;20.15;;;7.80;99.90;;;;;;4884640;29;20071;-43
2022/03/13 02:13:34;;;;;;;22.42;19.45;;;7.70;99.90;;;;;;4873209;29;20067;-45
2022/03/13 02:16:00;;;;;;;27.60;20.90;;;7.70;99.90;;;;;;4886497;29;20088;-44
2022/03/13 02:18:27;;;;;;;26.63;19.75;;;7.70;99.90;;;;;;4887060;29;20614;-45
2022/03/13 02:20:53;;;;;;;22.00;18.83;;;7.80;99.90;;;;;;4869214;29;20497;-43
2022/03/13 02:23:27;;;;;;;23.02;19.35;;;7.80;99.90;;;;;;4886117;29;20587;-44
2022/03/13 02:25:58;;;;;;;20.88;18.02;;;7.80;99.90;;;;;;4887892;29;20560;-42
2022/03/13 02:28:27;;;;;;;22.38;19.02;;;7.80;99.90;;;;;;4882818;29;20411;-43
2022/03/13 02:30:58;;;;;;;23.45;19.17;;;7.80;99.90;;;;;;4886290;29;20048;-44
2022/03/13 02:33:25;;;;;;;24.48;18.30;;;7.80;99.90;;;;;;4887954;29;20044;-45
2022/03/13 02:35:56;;;;;;;22.15;18.85;;;7.80;99.90;;;;;;4891510;29;20393;-44
2022/03/13 02:38:23;;;;;;;21.92;18.55;;;7.80;99.90;;;;;;4889888;29;20491;-46
2022/03/13 02:40:48;;;;;;;20.88;18.50;;;7.80;99.90;;;;;;4886146;29;20062;-45
2022/03/13 02:43:16;;;;;;;22.80;18.63;;;7.80;99.90;;;;;;4885878;29;20147;-43
2022/03/13 02:45:48;;;;;;;22.13;19.05;;;7.80;99.90;;;;;;4886607;29;20060;-46
2022/03/13 02:48:15;;;;;;;23.30;19.20;;;7.80;99.90;;;;;;4868812;29;20063;-43
2022/03/13 02:50:40;;;;;;;24.13;19.75;;;7.80;99.90;;;;;;4882320;29;20549;-42
2022/03/13 02:53:07;;;;;;;24.50;19.65;;;7.80;99.90;;;;;;4871617;29;20574;-43
2022/03/13 02:55:34;;;;;;;22.08;19.38;;;7.80;99.90;;;;;;4869517;29;20067;-43
2022/03/13 02:58:00;;;;;;;22.08;18.95;;;7.80;99.90;;;;;;4887182;29;20060;-45
2022/03/13 03:00:43;;;;;;;24.85;19.67;;;7.80;99.90;;;;;;4883613;29;20059;-43
2022/03/13 03:03:12;;;;;;;;;;;7.80;99.90;;;;;;4880155;29;20123;-43
2022/03/13 03:05:38;;;;;;;21.95;19.42;;;7.80;99.90;;;;;;4885718;29;19927;-44
2022/03/13 03:08:04;;;;;;;21.27;18.92;;;7.80;99.90;;;;;;4885587;29;20063;-44
2022/03/13 03:10:30;;;;;;;21.75;19.35;;;7.80;99.90;;;;;;4885225;29;20441;-42
2022/03/13 03:12:55;;;;;;;22.65;18.55;;;7.80;99.90;;;;;;4885317;29;20160;-43
2022/03/13 03:15:23;;;;;;;22.77;17.60;;;7.80;99.90;;;;;;4886033;29;20055;-42
2022/03/13 03:17:49;;;;;;;21.15;18.52;;;7.90;99.90;;;;;;4890227;29;20448;-44
2022/03/13 03:20:15;;;;;;;21.13;17.35;;;7.90;99.90;;;;;;4888925;29;20048;-42
2022/03/13 03:22:41;;;;;;;22.80;18.15;;;7.90;99.90;;;;;;4885785;29;20048;-44
2022/03/13 03:25:07;;;;;;;25.48;18.13;;;7.90;99.90;;;;;;4867706;29;20571;-43
2022/03/13 03:27:32;;;;;;;22.00;19.17;;;7.90;99.90;;;;;;4884022;29;20052;-43
2022/03/13 03:30:02;;;;;;;23.55;18.10;;;7.80;99.90;;;;;;4886174;29;20048;-44
2022/03/13 03:32:28;;;;;;;22.20;18.45;;;7.80;99.90;;;;;;4884991;29;20048;-43
2022/03/13 03:34:54;;;;;;;19.70;16.67;;;7.80;99.90;;;;;;4887927;29;20048;-42
2022/03/13 03:37:19;;;;;;;23.10;17.88;;;7.80;99.90;;;;;;4890599;29;20487;-43
2022/03/13 03:39:45;;;;;;;21.08;18.77;;;7.80;99.90;;;;;;4885005;29;20045;-43
2022/03/13 03:42:11;;;;;;;34.47;25.70;;;7.80;99.90;;;;;;4885307;29;20044;-43
2022/03/13 03:44:37;;;;;;;28.88;22.20;;;7.80;99.90;;;;;;4886173;29;20079;-45
2022/03/13 03:47:03;;;;;;;43.28;27.48;;;7.80;99.90;;;;;;4886363;29;20111;-43
2022/03/13 03:49:28;;;;;;;37.33;29.58;;;7.80;99.90;;;;;;4889668;29;20495;-48
2022/03/13 03:51:54;;;;;;;23.17;20.67;;;7.80;99.90;;;;;;4882310;29;20056;-44
2022/03/13 03:54:20;;;;;;;21.35;19.13;;;7.80;99.90;;;;;;4885092;29;20131;-51
2022/03/13 03:56:46;;;;;;;26.17;21.83;;;7.80;99.90;;;;;;4880920;29;20076;-44
2022/03/13 03:59:12;;;;;;;23.52;19.77;;;7.80;99.90;;;;;;4868752;29;20151;-43
2022/03/13 04:01:41;;;;;;;22.67;19.15;;;7.80;99.90;;;;;;4884102;29;20052;-44
2022/03/13 04:04:08;;;;;;;22.40;20.00;;;7.80;99.90;;;;;;4885003;29;20049;-44
2022/03/13 04:06:38;;;;;;;20.70;17.70;;;7.80;99.90;;;;;;4885346;29;20052;-44
2022/03/13 04:09:08;;;;;;;20.42;18.23;;;7.80;99.90;;;;;;4885136;29;20049;-43
2022/03/13 04:11:35;;;;;;;22.13;19.25;;;7.80;99.90;;;;;;4884157;29;20139;-43
2022/03/13 04:14:01;;;;;;;22.05;16.35;;;7.80;99.90;;;;;;4885667;29;20416;-46
2022/03/13 04:16:27;;;;;;;21.27;17.50;;;7.80;99.90;;;;;;4889489;29;20063;-44
2022/03/13 04:18:54;;;;;;;20.73;16.77;;;7.80;99.90;;;;;;4870206;29;20057;-42
2022/03/13 04:21:22;;;;;;;21.58;18.95;;;7.80;99.90;;;;;;4885047;29;20499;-43
2022/03/13 04:23:49;;;;;;;28.23;20.10;;;7.80;99.90;;;;;;4889185;29;20060;-43
2022/03/13 04:26:15;;;;;;;21.25;18.23;;;7.70;99.90;;;;;;4888259;29;20048;-43
2022/03/13 04:28:42;;;;;;;23.15;19.08;;;7.60;99.90;;;;;;4888671;29;20084;-43
2022/03/13 04:31:08;;;;;;;21.50;18.73;;;7.60;99.90;;;;;;4888255;29;20079;-44
2022/03/13 04:33:36;;;;;;;21.60;19.30;;;7.50;99.90;;;;;;4889213;29;20500;-43
2022/03/13 04:36:05;;;;;;;26.55;19.50;;;7.50;99.90;;;;;;4894053;29;20462;-44
2022/03/13 04:38:34;;;;;;;24.75;19.02;;;7.40;99.90;;;;;;4888187;29;20135;-45
2022/03/13 04:40:59;;;;;;;23.75;19.30;;;7.40;99.90;;;;;;4887607;29;20531;-43
2022/03/13 04:43:26;;;;;;;24.30;20.30;;;7.40;99.90;;;;;;4882901;29;20055;-44
2022/03/13 04:45:52;;;;;;;23.23;20.17;;;7.30;99.90;;;;;;4887427;29;20424;-48
2022/03/13 04:48:18;;;;;;;20.63;18.38;;;7.30;99.90;;;;;;4886996;29;20049;-44
2022/03/13 04:50:45;;;;;;;24.27;19.90;;;7.30;99.90;;;;;;4883991;29;20456;-45
2022/03/13 04:53:11;;;;;;;23.10;18.95;;;7.30;99.90;;;;;;4888429;29;20161;-46
2022/03/13 04:55:37;;;;;;;26.35;20.15;;;7.20;99.90;;;;;;4889108;29;20109;-44
2022/03/13 04:58:03;;;;;;;23.90;20.13;;;7.20;99.90;;;;;;4888146;29;20097;-43
2022/03/13 05:00:30;;;;;;;23.13;20.13;;;7.20;99.90;;;;;;4888033;29;20063;-47
2022/03/13 05:02:56;;;;;;;23.65;19.40;;;7.20;99.90;;;;;;4873235;29;20477;-43
2022/03/13 05:05:23;;;;;;;25.67;20.77;;;7.20;99.90;;;;;;4891039;29;20056;-45
2022/03/13 05:07:49;;;;;;;24.88;20.83;;;7.20;99.90;;;;;;4889020;29;20099;-45
2022/03/13 05:10:18;;;;;;;22.95;20.35;;;7.20;99.90;;;;;;4887677;29;20092;-48
2022/03/13 05:12:44;;;;;;;22.88;19.45;;;7.20;99.90;;;;;;4887568;29;20157;-46
2022/03/13 05:15:10;;;;;;;22.80;19.60;;;7.20;99.90;;;;;;4888150;29;20132;-44
2022/03/13 05:17:38;;;;;;;24.15;19.15;;;7.20;99.90;;;;;;4887867;29;20056;-45
2022/03/13 05:20:06;;;;;;;25.55;20.42;;;7.20;99.90;;;;;;4886373;29;20076;-44
2022/03/13 05:22:32;;;;;;;24.45;19.85;;;7.20;99.90;;;;;;4881574;29;20148;-44
2022/03/13 05:24:58;;;;;;;22.83;19.98;;;7.20;99.90;;;;;;4885679;29;20075;-46
2022/03/13 05:27:23;;;;;;;23.35;20.63;;;7.20;99.90;;;;;;4887200;29;20127;-43
2022/03/13 05:29:49;;;;;;;21.73;19.13;;;7.20;99.90;;;;;;4886534;29;20283;-42
2022/03/13 05:32:15;;;;;;;23.40;19.42;;;7.20;99.90;;;;;;4880164;29;20066;-43
2022/03/13 05:34:41;;;;;;;23.23;19.95;;;7.20;99.90;;;;;;4886985;29;20235;-43
2022/03/13 05:37:08;;;;;;;23.60;19.63;;;7.20;99.90;;;;;;4887560;29;20536;-43
2022/03/13 05:39:34;;;;;;;23.45;20.52;;;7.10;99.90;;;;;;4887204;29;20052;-43
2022/03/13 05:42:00;;;;;;;25.92;18.77;;;7.20;99.90;;;;;;4887074;29;20175;-43
2022/03/13 05:44:26;;;;;;;22.20;19.45;;;7.20;99.90;;;;;;4887112;29;20403;-43
2022/03/13 05:46:52;;;;;;;23.27;19.83;;;7.10;99.90;;;;;;4887246;29;20062;-43
2022/03/13 05:49:18;;;;;;;24.77;20.02;;;7.10;99.90;;;;;;4887005;29;20064;-43
2022/03/13 05:51:44;;;;;;;20.98;18.58;;;7.10;99.90;;;;;;4870021;29;20143;-43
2022/03/13 05:54:10;;;;;;;23.80;18.67;;;7.10;99.90;;;;;;4869100;29;20056;-46
2022/03/13 05:56:36;;;;;;;23.20;19.45;;;7.20;99.90;;;;;;4887238;29;20136;-43
2022/03/13 05:59:02;;;;;;;21.33;18.67;;;7.20;99.90;;;;;;4887125;29;20504;-44
2022/03/13 06:01:28;;;;;;;22.08;18.88;;;7.20;99.90;;;;;;4888070;29;20473;-43
2022/03/13 06:03:55;;;;;;;27.13;19.73;;;7.30;99.90;;;;;;4886482;29;20603;-43
2022/03/13 06:06:21;;;;;;;23.20;19.38;;;7.30;99.90;;;;;;4869928;29;20059;-46
2022/03/13 06:08:47;;;;;;;21.27;18.92;;;7.30;99.90;;;;;;4887250;29;20060;-45
2022/03/13 06:11:13;;;;;;;24.42;19.30;;;7.30;99.90;;;;;;4885435;29;20528;-42
2022/03/13 06:13:38;;;;;;;21.75;18.73;;;7.40;99.90;;;;;;4887927;29;20163;-43
2022/03/13 06:16:04;;;;;;;24.23;18.77;;;7.40;99.90;;;;;;4888286;29;20531;-43
2022/03/13 06:18:32;;;;;;;20.90;18.15;;;7.40;99.90;;;;;;4904175;29;20834;-45
2022/03/13 06:20:59;;;;;;;21.40;18.00;;;7.50;99.90;;;;;;4887996;29;20056;-47
2022/03/13 06:23:28;;;;;;;23.05;19.00;;;7.50;99.90;;;;;;4877198;29;20067;-46
2022/03/13 06:25:57;;;;;;;28.15;20.63;;;7.60;99.90;;;;;;4873832;29;20068;-42
2022/03/13 06:28:23;;;;;;;22.88;19.20;;;7.80;99.90;;;;;;4887453;29;20396;-44
2022/03/13 06:30:50;;;;;;;24.80;18.38;;;8.30;99.90;;;;;;4880893;29;20060;-43
2022/03/13 06:33:16;;;;;;;20.70;18.38;;;8.50;99.90;;;;;;4886577;29;20096;-43
2022/03/13 06:35:41;;;;;;;20.50;18.30;;;8.50;99.90;;;;;;4884281;29;20100;-43
2022/03/13 06:38:07;;;;;;;25.77;19.10;;;8.30;99.90;;;;;;4886423;29;20147;-43
2022/03/13 06:40:33;;;;;;;20.73;18.08;;;8.20;99.90;;;;;;4887385;29;20298;-45
2022/03/13 06:42:58;;;;;;;24.55;18.30;;;8.10;99.90;;;;;;4886088;29;20500;-45
2022/03/13 06:45:28;;;;;;;20.13;17.70;;;7.90;99.90;;;;;;4885580;29;20089;-46
2022/03/13 06:47:54;;;;;;;21.80;18.77;;;7.80;99.90;;;;;;4885373;29;20052;-44
2022/03/13 06:50:23;;;;;;;21.65;17.75;;;7.70;99.90;;;;;;4884892;29;20499;-45
2022/03/13 06:52:49;;;;;;;22.83;18.48;;;7.70;99.90;;;;;;4880003;29;20053;-43
2022/03/13 06:55:18;;;;;;;20.77;18.42;;;7.70;99.90;;;;;;4885464;29;20491;-44
2022/03/13 06:57:44;;;;;;;20.23;17.98;;;7.70;99.90;;;;;;4869015;29;20056;-43
2022/03/13 07:00:12;;;;;;;21.58;18.15;;;7.70;99.90;;;;;;4887244;29;20048;-44
2022/03/13 07:02:38;;;;;;;21.30;18.15;;;7.70;99.90;;;;;;4885955;29;20052;-45
2022/03/13 07:05:04;;;;;;;20.20;18.08;;;7.70;99.90;;;;;;4869056;29;20062;-43
2022/03/13 07:07:30;;;;;;;22.02;18.02;;;7.70;99.90;;;;;;4884690;29;20586;-41
2022/03/13 07:09:57;;;;;;;21.77;17.70;;;7.70;99.90;;;;;;4885360;29;20448;-44
2022/03/13 07:12:24;;;;;;;20.88;18.67;;;7.70;99.90;;;;;;4885202;29;20067;-43
2022/03/13 07:14:50;;;;;;;20.02;17.67;;;7.70;99.90;;;;;;4880385;29;20226;-43
2022/03/13 07:17:17;;;;;;;22.52;17.80;;;7.70;99.90;;;;;;4886789;29;20457;-43
2022/03/13 07:19:44;;;;;;;20.05;17.02;;;7.70;99.90;;;;;;4885620;29;20053;-42
2022/03/13 07:22:12;;;;;;;21.13;18.00;;;7.70;99.90;;;;;;4873162;29;20060;-43
2022/03/13 07:24:38;;;;;;;22.25;17.02;;;7.70;99.90;;;;;;4885804;29;20112;-43
2022/03/13 07:27:04;;;;;;;21.42;17.25;;;7.70;99.90;;;;;;4885870;29;20076;-44
2022/03/13 07:29:30;;;;;;;20.23;17.63;;;7.70;99.90;;;;;;4869157;29;20056;-44
2022/03/13 07:31:56;;;;;;;20.02;17.25;;;7.70;99.90;;;;;;4889370;29;20427;-44
2022/03/13 07:34:27;;;;;;;20.30;16.48;;;7.70;99.90;;;;;;4869220;29;20083;-45
2022/03/13 07:36:54;;;;;;;22.48;16.92;;;7.80;99.90;;;;;;4885975;29;20061;-45
2022/03/13 07:39:24;;;;;;;22.65;17.67;;;7.80;99.90;;;;;;4868376;29;20565;-48
2022/03/13 07:41:51;;;;;;;19.80;16.83;;;7.80;99.90;;;;;;4886990;29;20575;-43
2022/03/13 07:44:17;;;;;;;19.70;17.00;;;7.80;99.90;;;;;;4884855;29;20063;-43
2022/03/13 07:46:43;;;;;;;20.63;17.15;;;7.90;99.90;;;;;;4884124;29;20140;-46
2022/03/13 07:49:10;;;;;;;19.95;17.83;;;7.90;99.90;;;;;;4887021;29;20083;-44
2022/03/13 07:51:37;;;;;;;19.27;16.77;;;7.90;99.90;;;;;;4872054;29;20153;-44
2022/03/13 07:54:03;;;;;;;19.98;17.85;;;7.90;99.90;;;;;;4885360;29;20048;-45
2022/03/13 07:56:29;;;;;;;19.00;16.08;;;7.90;99.90;;;;;;4884844;29;20476;-46
2022/03/13 07:58:55;;;;;;;20.92;17.63;;;7.90;99.90;;;;;;4867680;29;20064;-44
2022/03/13 08:01:21;;;;;;;20.27;17.95;;;7.90;99.90;;;;;;4885517;29;21147;-44
2022/03/13 08:03:47;;;;;;;21.17;17.77;;;7.90;99.90;;;;;;4885034;29;20057;-45
2022/03/13 08:06:13;;;;;;;23.30;18.15;;;7.90;99.90;;;;;;4884875;29;20095;-44
2022/03/13 08:08:39;;;;;;;22.15;17.38;;;7.90;99.90;;;;;;4885481;29;20685;-46
2022/03/13 08:11:05;;;;;;;21.40;18.58;;;7.90;99.90;;;;;;4883900;29;20044;-46
2022/03/13 08:13:31;;;;;;;19.90;16.70;;;7.90;99.90;;;;;;4870396;29;20051;-47
2022/03/13 08:15:56;;;;;;;20.27;17.38;;;8.00;99.90;;;;;;4886415;29;20049;-45
2022/03/13 08:18:22;;;;;;;20.13;16.52;;;8.00;99.90;;;;;;4891727;29;20048;-44
2022/03/13 08:20:48;;;;;;;24.23;17.30;;;8.10;99.90;;;;;;4887712;29;20468;-43
2022/03/13 08:23:14;;;;;;;18.58;16.58;;;8.20;99.90;;;;;;4885645;29;20096;-45
2022/03/13 08:25:43;;;;;;;24.13;16.40;;;8.20;99.90;;;;;;4884083;29;20067;-46
2022/03/13 08:28:09;;;;;;;18.88;16.45;;;8.30;99.90;;;;;;4882146;29;20048;-44
2022/03/13 08:30:35;;;;;;;19.73;16.85;;;8.30;99.90;;;;;;4874585;29;20048;-44
2022/03/13 08:33:05;;;;;;;19.85;16.55;;;8.40;99.90;;;;;;4879534;29;20060;-49
2022/03/13 08:35:31;;;;;;;20.40;16.08;;;8.50;99.90;;;;;;4885650;29;20054;-44
2022/03/13 08:37:57;;;;;;;22.23;16.80;;;8.80;99.90;;;;;;4869011;29;20068;-44
2022/03/13 08:40:27;;;;;;;20.98;16.30;;;9.00;99.90;;;;;;4888136;29;20088;-46
2022/03/13 08:42:54;;;;;;;21.63;17.17;;;9.20;99.90;;;;;;4885939;29;20048;-43
2022/03/13 08:45:20;;;;;;;19.83;16.55;;;9.40;99.90;;;;;;4887781;29;20057;-49
2022/03/13 08:47:47;;;;;;;20.60;17.85;;;9.50;99.90;;;;;;4889581;29;20682;-49
2022/03/13 08:50:14;;;;;;;19.50;17.40;;;9.60;99.90;;;;;;4885177;29;20924;-50
2022/03/13 08:52:40;;;;;;;19.77;16.10;;;9.80;99.90;;;;;;4885885;29;20099;-46
2022/03/13 08:55:08;;;;;;;20.40;17.52;;;9.90;99.90;;;;;;4885182;29;20495;-47
2022/03/13 08:57:34;;;;;;;18.73;16.55;;;9.90;99.90;;;;;;4888448;29;20665;-47
2022/03/13 09:00:04;;;;;;;19.73;16.92;;;10.00;99.90;;;;;;4885882;29;20152;-47
2022/03/13 09:02:30;;;;;;;18.15;16.20;;;10.00;99.90;;;;;;4870915;29;20092;-49
2022/03/13 09:04:56;;;;;;;19.73;15.82;;;10.00;99.90;;;;;;4887554;29;20140;-47
2022/03/13 09:07:21;;;;;;;19.30;16.30;;;10.10;99.90;;;;;;4887734;29;20056;-45
2022/03/13 09:09:47;;;;;;;19.58;16.23;;;10.20;99.90;;;;;;4869250;29;20094;-45
2022/03/13 09:12:13;;;;;;;18.85;15.82;;;10.40;99.90;;;;;;4887649;29;20114;-47
2022/03/13 09:14:45;;;;;;;19.52;16.45;;;10.50;99.90;;;;;;4887242;29;20052;-46
2022/03/13 09:17:11;;;;;;;18.80;16.38;;;10.60;99.90;;;;;;4883323;29;20913;-46
2022/03/13 09:19:36;;;;;;;17.23;14.95;;;10.80;99.90;;;;;;4863820;29;20057;-46
2022/03/13 09:22:02;;;;;;;18.35;16.35;;;11.00;99.90;;;;;;4899380;29;20058;-47
2022/03/13 09:24:28;;;;;;;17.48;15.52;;;11.20;99.90;;;;;;4888009;29;20048;-45
2022/03/13 09:26:54;;;;;;;17.70;15.18;;;11.40;99.90;;;;;;4896851;29;20101;-44
2022/03/13 09:29:19;;;;;;;18.83;15.75;;;11.50;99.90;;;;;;4885126;29;20084;-47
2022/03/13 09:31:45;;;;;;;20.27;17.02;;;11.70;99.90;;;;;;4861405;29;20155;-46
2022/03/13 09:34:11;;;;;;;18.92;15.80;;;11.80;99.90;;;;;;4887990;29;20052;-44
2022/03/13 09:36:37;;;;;;;18.30;15.75;;;11.90;99.90;;;;;;4888004;29;20087;-45
2022/03/13 09:39:04;;;;;;;24.05;15.88;;;12.10;99.90;;;;;;4887543;29;20131;-46
2022/03/13 09:41:30;;;;;;;19.30;15.95;;;12.20;99.90;;;;;;4894684;29;20056;-45
2022/03/13 09:43:56;;;;;;;19.40;15.70;;;12.20;99.90;;;;;;4870034;29;20504;-46
2022/03/13 09:46:21;;;;;;;19.77;17.35;;;12.20;99.90;;;;;;4896337;29;20119;-45
2022/03/13 09:48:50;;;;;;;18.83;16.10;;;12.20;99.90;;;;;;4887241;29;20056;-44
2022/03/13 09:51:16;;;;;;;18.38;16.35;;;12.30;99.90;;;;;;4885750;29;20123;-49
2022/03/13 09:53:42;;;;;;;18.00;16.10;;;12.40;99.70;;;;;;4868205;29;20490;-47
2022/03/13 09:56:08;;;;;;;16.83;15.00;;;12.50;99.80;;;;;;4887951;29;20500;-46
2022/03/13 09:58:34;;;;;;;18.48;16.50;;;12.60;99.90;;;;;;4886985;29;20500;-47
2022/03/13 10:01:00;;;;;;;20.15;16.50;;;12.70;99.90;;;;;;4890499;29;20049;-47
2022/03/13 10:03:26;;;;;;;18.83;16.35;;;12.70;99.90;;;;;;4889571;29;20072;-47
2022/03/13 10:05:56;;;;;;;20.63;17.25;;;12.60;99.90;;;;;;4872340;29;20052;-50
2022/03/13 10:08:32;;;;;;;18.17;16.05;;;12.50;99.90;;;;;;4888476;29;20048;-49
2022/03/13 10:10:59;;;;;;;19.10;17.08;;;12.60;99.90;;;;;;4883921;29;20056;-47
2022/03/13 10:13:39;;;;;;;18.63;15.95;;;12.70;99.90;;;;;;4870597;29;20056;-47
2022/03/13 10:16:06;;;;;;;19.92;17.27;;;12.90;99.90;;;;;;4884523;29;20140;-45
2022/03/13 10:18:32;;;;;;;18.90;16.92;;;13.00;99.90;;;;;;4884947;29;20071;-47
2022/03/13 10:21:07;;;;;;;18.77;16.83;;;13.10;99.90;;;;;;4891669;29;20471;-46
2022/03/13 10:23:33;;;;;;;22.33;18.17;;;13.10;99.90;;;;;;4886858;29;20667;-45
2022/03/13 10:25:59;;;;;;;20.50;17.08;;;13.10;99.90;;;;;;4885508;29;20052;-45
2022/03/13 10:28:30;;;;;;;21.85;18.27;;;13.30;99.90;;;;;;4886505;29;20056;-45
2022/03/13 10:30:58;;;;;;;19.67;17.63;;;13.40;99.90;;;;;;4882694;29;20143;-49
2022/03/13 10:33:43;;;;;;;18.38;16.48;;;13.50;99.90;;;;;;4886124;29;20048;-46
2022/03/13 10:36:17;;;;;;;20.05;17.95;;;13.50;99.90;;;;;;4886777;29;20057;-44
2022/03/13 10:38:44;;;;;;;24.90;18.05;;;13.60;99.90;;;;;;4887077;29;20254;-46
2022/03/13 10:41:12;;;;;;;20.45;17.33;;;13.60;99.90;;;;;;4887982;29;20088;-45
2022/03/13 10:43:58;;;;;;;23.05;17.92;;;13.70;99.60;;;;;;4885207;29;20052;-46
2022/03/13 10:46:32;;;;;;;20.23;17.15;;;13.80;99.90;;;;;;4890846;29;20072;-46
2022/03/13 10:48:59;;;;;;;18.95;16.33;;;13.90;99.90;;;;;;4886162;29;20048;-45
2022/03/13 10:51:45;;;;;;;19.80;17.70;;;13.90;99.90;;;;;;4882801;29;20515;-45
2022/03/13 10:54:32;;;;;;;21.17;18.08;;;13.90;99.90;;;;;;4886032;29;20066;-44
2022/03/13 10:57:08;;;;;;;20.35;17.65;;;13.90;99.90;;;;;;4886005;29;20040;-46
2022/03/13 10:59:34;;;;;;;19.38;17.30;;;14.10;99.90;;;;;;4886263;29;20477;-46
2022/03/13 11:02:14;;;;;;;20.63;18.23;;;14.20;99.90;;;;;;4885191;29;20464;-45
2022/03/13 11:05:05;;;;;;;20.05;17.77;;;14.20;99.90;;;;;;4881321;29;20127;-47
2022/03/13 11:07:31;;;;;;;21.20;18.75;;;14.20;99.70;;;;;;4877612;29;20583;-45
2022/03/13 11:09:57;;;;;;;22.17;18.73;;;14.00;99.80;;;;;;4875900;29;20048;-46
2022/03/13 11:12:24;;;;;;;21.50;18.52;;;14.10;99.90;;;;;;4877041;29;20496;-45
2022/03/13 11:14:55;;;;;;;19.13;16.90;;;14.10;99.90;;;;;;4877827;29;20131;-46
2022/03/13 11:17:33;;;;;;;20.58;18.48;;;14.20;99.90;;;;;;4887073;29;20049;-47
2022/03/13 11:20:01;;;;;;;20.73;18.40;;;14.20;99.90;;;;;;4866410;29;20053;-45
2022/03/13 11:22:28;;;;;;;20.42;18.33;;;14.20;99.60;;;;;;4871708;29;20049;-48
2022/03/13 11:25:00;;;;;;;21.27;19.17;;;14.20;99.80;;;;;;4877854;29;20155;-46
2022/03/13 11:27:27;;;;;;;21.85;18.95;;;14.30;99.90;;;;;;4874547;29;20549;-47
2022/03/13 11:29:55;;;;;;;21.88;17.75;;;14.30;99.90;;;;;;4879294;29;20143;-44
2022/03/13 11:32:54;;;;;;;19.35;17.35;;;14.50;99.90;;;;;;4874710;29;20559;-47
2022/03/13 11:35:22;;;;;;;18.60;16.58;;;14.60;98.80;;;;;;4868325;29;20132;-46
2022/03/13 11:38:00;;;;;;;18.58;16.50;;;14.80;99.90;;;;;;4878183;29;20436;-45
2022/03/13 11:40:36;;;;;;;17.35;15.55;;;14.80;99.60;;;;;;4885369;29;20120;-46
2022/03/13 11:43:22;;;;;;;18.65;16.73;;;14.90;98.80;;;;;;4886483;29;20180;-45
2022/03/13 11:45:49;;;;;;;19.73;16.75;;;14.90;99.90;;;;;;4886904;29;20151;-46
2022/03/13 11:48:21;;;;;;;16.77;14.98;;;14.80;99.30;;;;;;4887958;29;20103;-45
2022/03/13 11:50:49;;;;;;;18.27;15.52;;;14.70;99.50;;;;;;4880615;29;20396;-46
2022/03/13 11:53:40;;;;;;;17.85;15.95;;;14.60;99.60;;;;;;4885678;29;20410;-45
2022/03/13 11:56:10;;;;;;;19.05;17.15;;;14.50;99.90;;;;;;4880200;29;20059;-45
2022/03/13 11:58:53;;;;;;;19.15;17.23;;;14.50;99.70;;;;;;4885233;29;20551;-45
2022/03/13 12:01:23;;;;;;;20.40;16.88;;;14.50;99.40;;;;;;4867419;29;20059;-45
2022/03/13 12:04:01;;;;;;;17.73;15.93;;;14.60;99.90;;;;;;4868183;29;20479;-45
2022/03/13 12:06:41;;;;;;;17.42;15.68;;;14.70;99.90;;;;;;4885081;29;20416;-46
2022/03/13 12:09:08;;;;;;;17.88;15.43;;;14.70;99.50;;;;;;4868918;29;20057;-47
2022/03/13 12:11:42;;;;;;;16.48;14.77;;;14.80;99.70;;;;;;4884015;29;20111;-46
2022/03/13 12:14:09;;;;;;;17.75;15.85;;;14.90;99.30;;;;;;4884558;29;20104;-45
2022/03/13 12:16:36;;;;;;;16.25;14.55;;;14.90;99.70;;;;;;4884855;29;20055;-46
2022/03/13 12:19:03;;;;;;;17.55;14.90;;;14.90;99.70;;;;;;4867818;29;20287;-46
2022/03/13 12:21:31;;;;;;;17.00;15.27;;;14.90;99.90;;;;;;4883720;29;20059;-48
2022/03/13 12:24:13;;;;;;;18.02;16.00;;;14.90;99.60;;;;;;4884156;29;20109;-47
2022/03/13 12:26:40;;;;;;;18.02;15.20;;;15.10;99.90;;;;;;4884936;29;20060;-46
2022/03/13 12:29:08;;;;;;;18.23;16.23;;;15.40;99.90;;;;;;4869654;29;20450;-47
2022/03/13 12:31:50;;;;;;;18.52;16.40;;;15.60;99.50;;;;;;4888071;29;20049;-49
2022/03/13 12:34:31;;;;;;;17.80;15.13;;;15.70;98.80;;;;;;4871169;29;20040;-50
2022/03/13 12:37:00;;;;;;;17.05;14.80;;;15.80;99.50;;;;;;4886949;29;20052;-50